To NAV CANADA Home Page Login to a new session Search on AWWS site Feedback and Comments Disclaimer Vers la page française équivalente Tips FAQ What's new on the site To the Forecasts and Observations / NOTAM section To "File a Flight Plan" website Publications and other links Update of the User's profile FIC Telephone Numbers My Weather Data Folder Route Weather Data Regional Weather Data Local Weather Data To the Forecasts and Observations / NOTAM section
Request Generated 07/06/2015 at 15:51:21 UTC . Weather information available at that time is displayed.

METAR/TAF

ST. ANTHONY/NL    (show WxCam)

SPECI CYAY 061527Z AUTO 14009KT 9SM BKN010 OVC014 10/08 A3020 RMK
SLP227=
METAR CYAY 061500Z AUTO 14008KT 9SM OVC008 09/08 A3020 RMK SLP227=
SPECI CYAY 061424Z AUTO 05011KT 040V110 9SM OVC010 09/08 A3019 RMK
SLP226=
METAR CYAY 061400Z AUTO 14007KT 9SM OVC010 09/08 A3019 RMK SLP224=
METAR CYAY 061300Z AUTO 10010KT 9SM OVC010 09/08 A3017 RMK SLP217=

CYAY - No TAF is issued for this station

Your time UTC time
Weather data provided by Environment Canada and NAV CANADA